| Station | Date | Time | Temp (°F) | RH (%) | Dew Pt (°F) | Wind Dir (°) | Wind Spd (mph) | Wind Gust (mph) | Solar Rad (W/m2) | Pressure (mb) | Daily Min Temp (°F) | Daily Max Temp (°F) | Daily Max Wind (mph) | Daily Rain (In) | Yest MinT (°F) | Yest MaxT (°F) | Yest MaxGst (mph) | Yest Precip (In) | MinBV Day (V) |
|---|---|---|---|---|---|---|---|---|---|---|---|---|---|---|---|---|---|---|---|
| MWA Office | 8/31/26 | 1115 | 87.5 1.9 | 20 4 | 41.7 6.5 | WSW | 241 | 12.4 7.1 | 20.6 9.6 | 819 5 | 1,009.3 0.8 | 64.1 4.4 | 88.0 1.7 | 20.6 9.2 | 0.00 | 68.6 | 95.3 | 28.1 | 0.00 | 12.4 0.0 |
| MWA OPS | 8/31/26 | 1115 | 86.1 3.9 | 20 4 | 39.9 7.9 | SW | 220 | 12.8 3.5 | 22.1 4.6 | 871 12 | 1,008.9 1.1 | 73.6 8.6 | 86.6 3.9 | 22.4 4.8 | 0.00 | 65.0 | 93.1 | 25.9 | 0.00 | 12.8 0.0 |
| LV-PS | 8/31/26 | 1115 | 86.8 1.5 | 23 4 | 44.0 6.0 | E | 92 | 3.8 1.9 | 9.6 1.5 | 863 4 | 1,008.5 0.2 | 67.5 6.4 | 87.3 1.9 | 10.1 9.4 | 0.00 | 72.2 | 97.8 | 22.4 | 0.00 | 12.8 0.0 |
| JV-PS | 8/31/26 | 1115 | 88.3 0.8 | 22 4 | 44.4 5.5 | E | 85 | 11.2 7.4 | 19.7 10.7 | 847 7 | 1,007.9 0.5 | 62.4 12.2 | 89.2 0.6 | 30.0 13.4 | 0.00 | 71.0 | 97.8 | 23.0 | 0.00 | 12.8 0.0 |
| BDVWA | 8/31/26 | 1115 | 84.5 2.2 | 29 1 | 49.0 1.0 | S | 187 | 5.3 0.5 | 11.2 0.0 | 862 7 | 1,008.2 0.2 | 65.3 4.0 | 85.6 2.1 | 12.1 0.9 | 0.00 | 69.3 | 93.5 | 31.8 | 0.00 | 12.8 0.0 |
| Newberry Springs | 8/31/26 | 1115 | 89.2 3.4 | 25 2 | 48.5 5.1 | WSW | 255 | 2.7 5.8 | 6.1 8.1 | 872 2 | 1,009.3 0.9 | 72.2 6.7 | 89.8 3.5 | 16.4 3.7 | 0.00 | 78.9 | 101.5 | 27.0 | 0.00 | 12.9 0.0 |
| Pinon Hills | 8/31/26 | 1115 | 79.2 1.5 | 21 8 | 35.9 10.0 | WSW | 252 | 9.2 4.5 | 22.8 11.6 | 847 22 | 1,008.0 0.3 | 61.1 1.4 | 79.9 1.9 | 22.8 8.8 | 0.00 | 62.5 | 86.0 | 40.6 | 0.00 | 12.9 0.0 |
| Helendale | 8/31/26 | 1115 | 87.5 2.5 | 29 6 | 51.2 3.6 | W | 260 | 6.8 1.5 | 11.2 1.8 | 808 346 | 1,008.8 0.7 | 67.2 4.7 | 88.0 3.4 | 12.7 0.7 | 0.00 | 71.9 | 98.5 | 28.9 | 0.00 | 12.7 0.0 |
| Lenwood | 8/31/26 | 1115 | 88.0 0.7 | 23 5 | 45.4 5.4 | NNW | 337 | 5.8 0.9 | 9.4 2.8 | 836 279 | 1,009.2 0.6 | 66.9 4.7 | 88.1 1.3 | 12.1 4.6 | 0.00 | 71.6 | 100.1 | 26.1 | 0.00 | 12.8 0.5 |
| Oak Hills | 8/31/26 | 1115 | 77.9 2.8 | 24 11 | 38.7 12.1 | SW | 218 | 7.9 1.2 | 20.0 3.9 | 888 8 | 1,009.9 0.8 | 60.3 5.2 | 78.3 3.0 | 20.0 1.8 | 0.00 | 63.0 | 87.9 | 24.6 | 0.00 | 12.9 0.0 |
| Pipes Wash Canyon | 8/31/26 | 1115 | 82.0 2.4 | 32 5 | 48.9 2.6 | E | 91 | 6.1 1.3 | 16.7 0.7 | 890 10 | 1,007.1 0.2 | 62.3 5.1 | 82.7 3.3 | 16.7 0.7 | 0.00 | 67.4 | 90.9 | 22.6 | 0.00 | 12.8 0.0 |
| Max | 89.2 | 32 | 51.2 | - | 12.8 | 22.8 | 890 | 1,009.9 | 73.6 | 89.8 | 30.0 | 0.00 | 78.9 | 101.5 | 40.6 | 0.00 | 12.9 | ||
| Avg | 85.2 | 24 | 44.3 | - | 7.6 | 15.4 | 855 | 1,008.7 | - | - | - | - | - | - | - | - | - | ||
| Min | 77.9 | 20 | 35.9 | - | 2.7 | 6.1 | 808 | 1,007.1 | 60.3 | 78.3 | 10.1 | 0.00 | 62.5 | 86.0 | 22.4 | 0.00 | 12.4 |
| Station | Date | Time | Latest Rain (In) | Daily Rain (In) | Yest Precip (In) | Month Precip (In) | Season Precip (In) | Daily ETo (in) | Yest ETo (In) | 7 Day ETo (in) |
|---|---|---|---|---|---|---|---|---|---|---|
| MWA Office | 8/31/26 | 1115 | 0.00 | 0.00 | 0.00 | 0.00 | 0.00 | 0.058 | 0.27 | 1.84 |
| MWA OPS | 8/31/26 | 1115 | 0.00 | 0.00 | 0.00 | 0.00 | 0.00 | 0.092 | 0.30 | 1.99 |
| LV-PS | 8/31/26 | 1115 | 0.00 | 0.00 | 0.00 | 0.33 | 0.34 | 0.064 | 0.28 | 1.94 |
| JV-PS | 8/31/26 | 1115 | 0.00 | 0.00 | 0.00 | 0.06 | 0.06 | 0.066 | 0.30 | 1.87 |
| BDVWA | 8/31/26 | 1115 | 0.00 | 0.00 | 0.00 | 0.00 | 0.00 | 0.076 | 0.30 | 2.12 |
| Newberry Springs | 8/31/26 | 1115 | 0.00 | 0.00 | 0.00 | 1.97 | 1.97 | 0.081 | 0.33 | 2.35 |
| Pinon Hills | 8/31/26 | 1115 | 0.00 | 0.00 | 0.00 | 0.15 | 0.19 | 0.064 | 0.28 | 1.78 |
| Helendale | 8/31/26 | 1115 | 0.00 | 0.00 | 0.00 | 0.00 | 0.00 | 0.067 | 0.29 | 2.13 |
| Lenwood | 8/31/26 | 1115 | 0.00 | 0.00 | 0.00 | 0.09 | 0.09 | 0.065 | 0.29 | 2.04 |
| Oak Hills | 8/31/26 | 1115 | 0.00 | 0.00 | 0.00 | 0.00 | 0.00 | 0.064 | 0.26 | 1.80 |
| Pipes Wash Canyon | 8/31/26 | 1115 | 0.00 | 0.00 | 0.00 | 0.00 | 0.00 | 0.070 | 0.25 | 1.72 |
| Max | 0.00 | 0.00 | 0.00 | 1.97 | 1.97 | 0.092 | 0.33 | 2.35 | ||
| Avg | 0.00 | - | - | - | - | - | - | - | ||
| Min | 0.00 | 0.00 | 0.00 | 0.00 | 0.00 | 0.058 | 0.25 | 1.72 |